sensor_id;sensor_type;location;lat;lon;timestamp;pressure;altitude;pressure_sealevel;temperature;humidity
52745;BME280;38637;49.984;20.426;2023-03-01T00:01:13;100609.75;;;-2.44;77.30
52745;BME280;38637;49.984;20.426;2023-03-01T00:03:39;100616.66;;;-2.41;77.19
52745;BME280;38637;49.984;20.426;2023-03-01T00:06:05;100609.75;;;-2.44;76.67
52745;BME280;38637;49.984;20.426;2023-03-01T00:08:32;100609.03;;;-2.46;76.37
52745;BME280;38637;49.984;20.426;2023-03-01T00:13:44;100605.00;;;-2.50;76.53
52745;BME280;38637;49.984;20.426;2023-03-01T00:16:12;100606.66;;;-2.49;75.96
52745;BME280;38637;49.984;20.426;2023-03-01T00:18:38;100606.66;;;-2.49;76.17
52745;BME280;38637;49.984;20.426;2023-03-01T00:21:04;100595.72;;;-2.56;76.88
52745;BME280;38637;49.984;20.426;2023-03-01T00:23:30;100603.69;;;-2.46;77.24
52745;BME280;38637;49.984;20.426;2023-03-01T00:25:55;100601.03;;;-2.46;77.30
52745;BME280;38637;49.984;20.426;2023-03-01T00:28:21;100601.19;;;-2.47;77.14
52745;BME280;38637;49.984;20.426;2023-03-01T00:30:46;100599.66;;;-2.50;77.94
52745;BME280;38637;49.984;20.426;2023-03-01T00:33:13;100595.13;;;-2.49;77.95
52745;BME280;38637;49.984;20.426;2023-03-01T00:35:38;100594.59;;;-2.53;77.32
52745;BME280;38637;49.984;20.426;2023-03-01T00:38:04;100589.66;;;-2.58;76.87
52745;BME280;38637;49.984;20.426;2023-03-01T00:40:32;100597.00;;;-2.60;76.89
52745;BME280;38637;49.984;20.426;2023-03-01T00:42:57;100594.06;;;-2.66;76.97
52745;BME280;38637;49.984;20.426;2023-03-01T00:45:23;100584.22;;;-2.75;77.18
52745;BME280;38637;49.984;20.426;2023-03-01T00:47:49;100580.88;;;-2.78;76.84
52745;BME280;38637;49.984;20.426;2023-03-01T00:50:15;100576.38;;;-2.77;76.73
52745;BME280;38637;49.984;20.426;2023-03-01T00:52:40;100575.66;;;-2.79;76.54
52745;BME280;38637;49.984;20.426;2023-03-01T00:55:06;100558.50;;;-2.77;76.36
52745;BME280;38637;49.984;20.426;2023-03-01T00:57:32;100571.88;;;-2.77;76.87
52745;BME280;38637;49.984;20.426;2023-03-01T00:59:57;100569.91;;;-2.74;76.40
52745;BME280;38637;49.984;20.426;2023-03-01T01:02:23;100560.03;;;-2.74;76.68
52745;BME280;38637;49.984;20.426;2023-03-01T01:04:48;100551.72;;;-2.71;76.44
52745;BME280;38637;49.984;20.426;2023-03-01T01:07:14;100559.75;;;-2.71;76.87
52745;BME280;38637;49.984;20.426;2023-03-01T01:09:40;100559.88;;;-2.72;76.16
52745;BME280;38637;49.984;20.426;2023-03-01T01:12:06;100566.78;;;-2.70;76.59
52745;BME280;38637;49.984;20.426;2023-03-01T01:14:32;100562.44;;;-2.71;76.98
52745;BME280;38637;49.984;20.426;2023-03-01T01:16:57;100564.25;;;-2.71;77.06
52745;BME280;38637;49.984;20.426;2023-03-01T01:19:23;100569.44;;;-2.70;77.57
52745;BME280;38637;49.984;20.426;2023-03-01T01:21:48;100566.66;;;-2.68;77.69
52745;BME280;38637;49.984;20.426;2023-03-01T01:24:15;100563.97;;;-2.68;77.49
52745;BME280;38637;49.984;20.426;2023-03-01T01:26:41;100562.84;;;-2.66;77.61
52745;BME280;38637;49.984;20.426;2023-03-01T01:29:07;100568.03;;;-2.64;78.24
52745;BME280;38637;49.984;20.426;2023-03-01T01:31:34;100555.94;;;-2.68;78.25
52745;BME280;38637;49.984;20.426;2023-03-01T01:34:01;100557.78;;;-2.69;77.96
52745;BME280;38637;49.984;20.426;2023-03-01T01:36:27;100553.69;;;-2.73;77.10
52745;BME280;38637;49.984;20.426;2023-03-01T01:38:52;100551.31;;;-2.76;76.86
52745;BME280;38637;49.984;20.426;2023-03-01T01:41:19;100552.06;;;-2.84;76.75
52745;BME280;38637;49.984;20.426;2023-03-01T01:43:47;100546.47;;;-2.90;76.35
52745;BME280;38637;49.984;20.426;2023-03-01T01:46:32;100543.50;;;-2.97;76.62
52745;BME280;38637;49.984;20.426;2023-03-01T01:49:02;100543.78;;;-2.90;77.25
52745;BME280;38637;49.984;20.426;2023-03-01T01:51:32;100538.28;;;-2.89;77.28
52745;BME280;38637;49.984;20.426;2023-03-01T01:54:07;100539.66;;;-2.85;77.76
52745;BME280;38637;49.984;20.426;2023-03-01T01:56:33;100546.72;;;-2.84;77.36
52745;BME280;38637;49.984;20.426;2023-03-01T01:58:58;100554.31;;;-2.89;77.38
52745;BME280;38637;49.984;20.426;2023-03-01T02:01:24;100551.94;;;-2.92;77.25
52745;BME280;38637;49.984;20.426;2023-03-01T02:03:50;100543.13;;;-3.02;77.17
52745;BME280;38637;49.984;20.426;2023-03-01T02:08:49;100542.78;;;-2.89;77.77
52745;BME280;38637;49.984;20.426;2023-03-01T02:11:17;100541.78;;;-2.88;77.92
52745;BME280;38637;49.984;20.426;2023-03-01T02:13:43;100548.97;;;-2.89;78.04
52745;BME280;38637;49.984;20.426;2023-03-01T02:16:11;100528.06;;;-3.03;77.51
52745;BME280;38637;49.984;20.426;2023-03-01T02:18:38;100547.34;;;-2.99;77.40
52745;BME280;38637;49.984;20.426;2023-03-01T02:27:09;100541.00;;;-2.98;76.87
52745;BME280;38637;49.984;20.426;2023-03-01T02:29:35;100543.78;;;-3.00;77.43
52745;BME280;38637;49.984;20.426;2023-03-01T02:32:02;100549.31;;;-3.02;76.87
52745;BME280;38637;49.984;20.426;2023-03-01T02:34:30;100545.78;;;-3.02;76.64
52745;BME280;38637;49.984;20.426;2023-03-01T02:39:28;100551.44;;;-3.05;76.85
52745;BME280;38637;49.984;20.426;2023-03-01T02:41:56;100553.84;;;-3.12;76.69
52745;BME280;38637;49.984;20.426;2023-03-01T02:44:24;100534.03;;;-3.29;76.64
52745;BME280;38637;49.984;20.426;2023-03-01T02:46:55;100545.53;;;-3.18;77.05
52745;BME280;38637;49.984;20.426;2023-03-01T02:49:27;100545.53;;;-3.18;76.85
52745;BME280;38637;49.984;20.426;2023-03-01T02:55:11;100543.84;;;-3.19;76.52
52745;BME280;38637;49.984;20.426;2023-03-01T02:57:40;100558.06;;;-3.19;76.76
52745;BME280;38637;49.984;20.426;2023-03-01T03:00:15;100532.09;;;-3.36;76.30
52745;BME280;38637;49.984;20.426;2023-03-01T03:02:51;100531.38;;;-3.38;76.51
52745;BME280;38637;49.984;20.426;2023-03-01T03:05:23;100542.34;;;-3.32;76.30
52745;BME280;38637;49.984;20.426;2023-03-01T03:07:49;100540.22;;;-3.38;75.94
52745;BME280;38637;49.984;20.426;2023-03-01T03:10:30;100544.28;;;-3.34;76.33
52745;BME280;38637;49.984;20.426;2023-03-01T03:12:59;100533.22;;;-3.39;76.32
52745;BME280;38637;49.984;20.426;2023-03-01T03:15:25;100534.34;;;-3.41;76.42
52745;BME280;38637;49.984;20.426;2023-03-01T03:17:52;100535.19;;;-3.41;76.25
52745;BME280;38637;49.984;20.426;2023-03-01T03:20:19;100534.34;;;-3.41;75.79
52745;BME280;38637;49.984;20.426;2023-03-01T03:22:50;100538.84;;;-3.42;76.30
52745;BME280;38637;49.984;20.426;2023-03-01T03:25:17;100515.97;;;-3.54;76.21
52745;BME280;38637;49.984;20.426;2023-03-01T03:27:44;100529.28;;;-3.44;75.68
52745;BME280;38637;49.984;20.426;2023-03-01T03:30:11;100525.50;;;-3.42;75.99
52745;BME280;38637;49.984;20.426;2023-03-01T03:32:42;100532.22;;;-3.38;76.14
52745;BME280;38637;49.984;20.426;2023-03-01T03:35:09;100520.72;;;-3.38;76.00
52745;BME280;38637;49.984;20.426;2023-03-01T03:37:39;100528.44;;;-3.35;76.46
52745;BME280;38637;49.984;20.426;2023-03-01T03:40:23;100531.38;;;-3.38;76.19
52745;BME280;38637;49.984;20.426;2023-03-01T03:42:49;100532.38;;;-3.39;75.97
52745;BME280;38637;49.984;20.426;2023-03-01T03:45:15;100537.84;;;-3.41;76.81
52745;BME280;38637;49.984;20.426;2023-03-01T03:47:41;100535.75;;;-3.47;77.44
52745;BME280;38637;49.984;20.426;2023-03-01T03:50:07;100536.88;;;-3.50;78.15
52745;BME280;38637;49.984;20.426;2023-03-01T03:52:32;100539.53;;;-3.50;77.57
52745;BME280;38637;49.984;20.426;2023-03-01T03:54:57;100541.53;;;-3.52;77.97
52745;BME280;38637;49.984;20.426;2023-03-01T03:57:22;100540.25;;;-3.48;77.62
52745;BME280;38637;49.984;20.426;2023-03-01T03:59:48;100536.59;;;-3.47;77.47
52745;BME280;38637;49.984;20.426;2023-03-01T04:02:14;100535.75;;;-3.47;76.97
52745;BME280;38637;49.984;20.426;2023-03-01T04:04:47;100534.06;;;-3.48;76.97
52745;BME280;38637;49.984;20.426;2023-03-01T04:07:15;100529.84;;;-3.51;76.46
52745;BME280;38637;49.984;20.426;2023-03-01T04:09:40;100540.66;;;-3.52;76.31
52745;BME280;38637;49.984;20.426;2023-03-01T04:12:07;100531.53;;;-3.59;75.91
52745;BME280;38637;49.984;20.426;2023-03-01T04:14:33;100535.22;;;-3.60;76.02
52745;BME280;38637;49.984;20.426;2023-03-01T04:16:58;100524.81;;;-3.63;75.99
52745;BME280;38637;49.984;20.426;2023-03-01T04:19:23;100530.16;;;-3.63;75.62
52745;BME280;38637;49.984;20.426;2023-03-01T04:21:49;100523.81;;;-3.62;75.73
52745;BME280;38637;49.984;20.426;2023-03-01T04:24:14;100519.47;;;-3.63;76.39
52745;BME280;38637;49.984;20.426;2023-03-01T04:26:39;100520.44;;;-3.64;75.79
52745;BME280;38637;49.984;20.426;2023-03-01T04:29:04;100520.31;;;-3.73;76.16
52745;BME280;38637;49.984;20.426;2023-03-01T04:31:30;100540.69;;;-3.62;76.32
52745;BME280;38637;49.984;20.426;2023-03-01T04:33:55;100526.09;;;-3.58;76.26
52745;BME280;38637;49.984;20.426;2023-03-01T04:36:23;100520.75;;;-3.58;76.49
52745;BME280;38637;49.984;20.426;2023-03-01T04:38:49;100525.94;;;-3.56;76.89
52745;BME280;38637;49.984;20.426;2023-03-01T04:41:17;100523.69;;;-3.61;76.64
52745;BME280;38637;49.984;20.426;2023-03-01T04:43:42;100512.44;;;-3.64;76.31
52745;BME280;38637;49.984;20.426;2023-03-01T04:46:11;100513.31;;;-3.64;76.00
52745;BME280;38637;49.984;20.426;2023-03-01T04:48:38;100520.59;;;-3.66;75.64
52745;BME280;38637;49.984;20.426;2023-03-01T04:51:04;100519.75;;;-3.66;76.30
52745;BME280;38637;49.984;20.426;2023-03-01T04:53:29;100516.38;;;-3.68;75.82
52745;BME280;38637;49.984;20.426;2023-03-01T04:55:56;100517.22;;;-3.68;75.96
52745;BME280;38637;49.984;20.426;2023-03-01T04:58:26;100522.00;;;-3.72;75.74
52745;BME280;38637;49.984;20.426;2023-03-01T05:00:52;100510.63;;;-3.74;75.71
52745;BME280;38637;49.984;20.426;2023-03-01T05:03:18;100517.78;;;-3.74;75.62
52745;BME280;38637;49.984;20.426;2023-03-01T05:05:46;100514.72;;;-3.70;76.25
52745;BME280;38637;49.984;20.426;2023-03-01T05:08:13;100500.22;;;-3.77;76.39
52745;BME280;38637;49.984;20.426;2023-03-01T05:10:47;100508.81;;;-3.73;76.15
52745;BME280;38637;49.984;20.426;2023-03-01T05:13:13;100500.81;;;-3.73;76.17
52745;BME280;38637;49.984;20.426;2023-03-01T05:15:45;100505.00;;;-3.71;76.29
52745;BME280;38637;49.984;20.426;2023-03-01T05:18:11;100504.72;;;-3.67;75.79
52745;BME280;38637;49.984;20.426;2023-03-01T05:20:37;100506.53;;;-3.68;75.59
52745;BME280;38637;49.984;20.426;2023-03-01T05:23:03;100507.25;;;-3.66;75.83
52745;BME280;38637;49.984;20.426;2023-03-01T05:25:31;100518.63;;;-3.64;75.68
52745;BME280;38637;49.984;20.426;2023-03-01T05:28:01;100508.81;;;-3.63;76.37
52745;BME280;38637;49.984;20.426;2023-03-01T05:30:33;100510.47;;;-3.62;76.46
52745;BME280;38637;49.984;20.426;2023-03-01T05:32:58;100512.03;;;-3.60;76.80
52745;BME280;38637;49.984;20.426;2023-03-01T05:35:24;100521.72;;;-3.59;76.68
52745;BME280;38637;49.984;20.426;2023-03-01T05:37:49;100527.75;;;-3.57;76.62
52745;BME280;38637;49.984;20.426;2023-03-01T05:40:17;100534.47;;;-3.53;76.52
52745;BME280;38637;49.984;20.426;2023-03-01T05:42:48;100530.69;;;-3.50;76.03
52745;BME280;38637;49.984;20.426;2023-03-01T05:45:15;100527.75;;;-3.47;77.24
52745;BME280;38637;49.984;20.426;2023-03-01T05:47:42;100524.50;;;-3.41;77.10
52745;BME280;38637;49.984;20.426;2023-03-01T05:50:11;100527.31;;;-3.42;76.77
52745;BME280;38637;49.984;20.426;2023-03-01T05:52:36;100521.53;;;-3.38;76.48
52745;BME280;38637;49.984;20.426;2023-03-01T05:55:02;100509.75;;;-3.45;75.69
52745;BME280;38637;49.984;20.426;2023-03-01T05:57:28;100531.53;;;-3.30;75.85
52745;BME280;38637;49.984;20.426;2023-03-01T05:59:54;100507.91;;;-3.35;75.83
52745;BME280;38637;49.984;20.426;2023-03-01T06:02:19;100522.19;;;-3.16;76.55
52745;BME280;38637;49.984;20.426;2023-03-01T06:04:44;100526.84;;;-3.09;76.53
52745;BME280;38637;49.984;20.426;2023-03-01T06:07:10;100515.41;;;-3.01;76.95
52745;BME280;38637;49.984;20.426;2023-03-01T06:09:35;100524.09;;;-2.89;76.68
52745;BME280;38637;49.984;20.426;2023-03-01T06:12:00;100530.22;;;-2.79;76.95
52745;BME280;38637;49.984;20.426;2023-03-01T06:14:25;100533.16;;;-2.72;76.82
52745;BME280;38637;49.984;20.426;2023-03-01T06:16:51;100529.59;;;-2.63;76.72
52745;BME280;38637;49.984;20.426;2023-03-01T06:19:16;100536.88;;;-2.56;77.28
52745;BME280;38637;49.984;20.426;2023-03-01T06:21:41;100531.66;;;-2.47;77.28
52745;BME280;38637;49.984;20.426;2023-03-01T06:24:07;100543.28;;;-2.39;76.92
52745;BME280;38637;49.984;20.426;2023-03-01T06:26:33;100540.03;;;-2.33;77.64
52745;BME280;38637;49.984;20.426;2023-03-01T06:28:58;100539.44;;;-2.26;77.26
52745;BME280;38637;49.984;20.426;2023-03-01T06:31:23;100538.53;;;-2.17;77.02
52745;BME280;38637;49.984;20.426;2023-03-01T06:33:49;100533.25;;;-2.09;77.06
52745;BME280;38637;49.984;20.426;2023-03-01T06:36:14;100534.34;;;-2.02;77.27
52745;BME280;38637;49.984;20.426;2023-03-01T06:38:44;100528.22;;;-1.94;76.96
52745;BME280;38637;49.984;20.426;2023-03-01T06:41:09;100536.16;;;-1.85;77.32
52745;BME280;38637;49.984;20.426;2023-03-01T06:43:34;100538.75;;;-1.75;76.68
52745;BME280;38637;49.984;20.426;2023-03-01T06:45:59;100540.69;;;-1.67;77.09
52745;BME280;38637;49.984;20.426;2023-03-01T06:48:26;100525.69;;;-1.60;76.83
52745;BME280;38637;49.984;20.426;2023-03-01T06:50:51;100526.59;;;-1.51;76.84
52745;BME280;38637;49.984;20.426;2023-03-01T06:53:16;100517.09;;;-1.46;76.73
52745;BME280;38637;49.984;20.426;2023-03-01T06:55:42;100517.19;;;-1.37;76.63
52745;BME280;38637;49.984;20.426;2023-03-01T06:58:08;100516.38;;;-1.30;77.04
52745;BME280;38637;49.984;20.426;2023-03-01T07:00:34;100512.06;;;-1.23;77.34
52745;BME280;38637;49.984;20.426;2023-03-01T07:03:00;100517.81;;;-1.18;76.44
52745;BME280;38637;49.984;20.426;2023-03-01T07:05:27;100505.63;;;-1.12;76.58
52745;BME280;38637;49.984;20.426;2023-03-01T07:07:53;100500.47;;;-1.05;76.75
52745;BME280;38637;49.984;20.426;2023-03-01T07:10:18;100497.13;;;-0.99;76.94
52745;BME280;38637;49.984;20.426;2023-03-01T07:12:44;100491.00;;;-0.91;76.26
52745;BME280;38637;49.984;20.426;2023-03-01T07:15:09;100487.69;;;-0.85;77.01
52745;BME280;38637;49.984;20.426;2023-03-01T07:17:35;100480.16;;;-0.82;76.29
52745;BME280;38637;49.984;20.426;2023-03-01T07:20:00;100474.97;;;-0.75;76.78
52745;BME280;38637;49.984;20.426;2023-03-01T07:22:25;100470.50;;;-0.66;76.97
52745;BME280;38637;49.984;20.426;2023-03-01T07:24:51;100473.03;;;-0.57;76.58
52745;BME280;38637;49.984;20.426;2023-03-01T07:27:16;100471.03;;;-0.55;76.58
52745;BME280;38637;49.984;20.426;2023-03-01T07:29:41;100469.72;;;-0.51;77.22
52745;BME280;38637;49.984;20.426;2023-03-01T07:32:07;100478.13;;;-0.45;76.37
52745;BME280;38637;49.984;20.426;2023-03-01T07:34:32;100471.75;;;-0.44;76.80
52745;BME280;38637;49.984;20.426;2023-03-01T07:36:58;100474.59;;;-0.38;77.01
52745;BME280;38637;49.984;20.426;2023-03-01T07:39:23;100481.50;;;-0.35;77.72
52745;BME280;38637;49.984;20.426;2023-03-01T07:41:49;100491.06;;;-0.33;78.07
52745;BME280;38637;49.984;20.426;2023-03-01T07:44:15;100492.03;;;-0.34;78.12
52745;BME280;38637;49.984;20.426;2023-03-01T07:46:41;100494.25;;;-0.29;78.15
52745;BME280;38637;49.984;20.426;2023-03-01T07:49:07;100492.44;;;-0.20;78.13
52745;BME280;38637;49.984;20.426;2023-03-01T07:51:32;100479.19;;;-0.14;77.68
52745;BME280;38637;49.984;20.426;2023-03-01T07:53:57;100498.31;;;-0.17;77.78
52745;BME280;38637;49.984;20.426;2023-03-01T07:56:22;100477.31;;;-0.30;78.20
52745;BME280;38637;49.984;20.426;2023-03-01T07:58:48;100481.69;;;-0.12;78.18
52745;BME280;38637;49.984;20.426;2023-03-01T08:01:16;100481.25;;;0.01;77.92
52745;BME280;38637;49.984;20.426;2023-03-01T08:03:42;100470.81;;;0.06;78.14
52745;BME280;38637;49.984;20.426;2023-03-01T08:06:10;100474.19;;;0.24;77.81
52745;BME280;38637;49.984;20.426;2023-03-01T08:08:36;100475.03;;;0.33;77.47
52745;BME280;38637;49.984;20.426;2023-03-01T08:11:03;100466.31;;;0.39;77.40
52745;BME280;38637;49.984;20.426;2023-03-01T08:13:29;100475.53;;;0.53;76.91
52745;BME280;38637;49.984;20.426;2023-03-01T08:16:00;100474.19;;;0.57;76.79
52745;BME280;38637;49.984;20.426;2023-03-01T08:18:26;100472.50;;;0.64;76.55
52745;BME280;38637;49.984;20.426;2023-03-01T08:20:51;100472.00;;;0.68;76.21
52745;BME280;38637;49.984;20.426;2023-03-01T08:23:16;100471.13;;;0.76;76.14
52745;BME280;38637;49.984;20.426;2023-03-01T08:25:42;100470.44;;;0.82;75.81
52745;BME280;38637;49.984;20.426;2023-03-01T08:28:07;100466.44;;;0.86;75.51
52745;BME280;38637;49.984;20.426;2023-03-01T08:30:32;100464.03;;;0.91;74.97
52745;BME280;38637;49.984;20.426;2023-03-01T08:32:58;100456.16;;;0.98;74.90
52745;BME280;38637;49.984;20.426;2023-03-01T08:35:23;100450.44;;;1.01;74.61
52745;BME280;38637;49.984;20.426;2023-03-01T08:37:48;100449.38;;;1.10;74.64
52745;BME280;38637;49.984;20.426;2023-03-01T08:40:14;100445.47;;;1.13;73.88
52745;BME280;38637;49.984;20.426;2023-03-01T08:42:40;100435.88;;;1.19;73.84
52745;BME280;38637;49.984;20.426;2023-03-01T08:45:08;100433.19;;;1.19;72.93
52745;BME280;38637;49.984;20.426;2023-03-01T08:47:34;100437.22;;;1.23;72.74
52745;BME280;38637;49.984;20.426;2023-03-01T08:50:00;100443.59;;;1.30;72.82
52745;BME280;38637;49.984;20.426;2023-03-01T08:52:25;100439.72;;;1.32;72.33
52745;BME280;38637;49.984;20.426;2023-03-01T08:54:51;100440.56;;;1.25;71.90
52745;BME280;38637;49.984;20.426;2023-03-01T08:57:16;100453.31;;;1.31;72.01
52745;BME280;38637;49.984;20.426;2023-03-01T08:59:41;100451.81;;;1.28;71.72
52745;BME280;38637;49.984;20.426;2023-03-01T09:02:12;100448.25;;;1.36;71.83
52745;BME280;38637;49.984;20.426;2023-03-01T09:04:38;100452.75;;;1.44;71.86
52745;BME280;38637;49.984;20.426;2023-03-01T09:07:04;100445.84;;;1.49;71.78
52745;BME280;38637;49.984;20.426;2023-03-01T09:09:29;100443.47;;;1.54;71.59
52745;BME280;38637;49.984;20.426;2023-03-01T09:11:54;100442.75;;;1.60;71.27
52745;BME280;38637;49.984;20.426;2023-03-01T09:14:20;100435.00;;;1.66;70.94
52745;BME280;38637;49.984;20.426;2023-03-01T09:16:45;100440.84;;;1.69;70.36
52745;BME280;38637;49.984;20.426;2023-03-01T09:19:12;100438.66;;;1.73;69.97
52745;BME280;38637;49.984;20.426;2023-03-01T09:21:38;100448.03;;;1.77;68.73
52745;BME280;38637;49.984;20.426;2023-03-01T09:24:04;100443.78;;;1.82;69.57
52745;BME280;38637;49.984;20.426;2023-03-01T09:26:29;100442.41;;;1.87;68.63
52745;BME280;38637;49.984;20.426;2023-03-01T09:28:55;100445.78;;;1.89;68.34
52745;BME280;38637;49.984;20.426;2023-03-01T09:31:22;100442.06;;;1.90;67.24
52745;BME280;38637;49.984;20.426;2023-03-01T09:33:50;100443.56;;;1.92;66.85
52745;BME280;38637;49.984;20.426;2023-03-01T09:36:18;100435.94;;;1.96;66.33
52745;BME280;38637;49.984;20.426;2023-03-01T09:38:44;100447.50;;;2.04;67.00
52745;BME280;38637;49.984;20.426;2023-03-01T09:41:35;100447.63;;;2.11;64.11
52745;BME280;38637;49.984;20.426;2023-03-01T09:44:10;100451.34;;;2.10;62.76
52745;BME280;38637;49.984;20.426;2023-03-01T09:46:42;100442.72;;;2.15;64.17
52745;BME280;38637;49.984;20.426;2023-03-01T09:49:23;100451.56;;;2.23;64.12
52745;BME280;38637;49.984;20.426;2023-03-01T09:52:21;100448.34;;;2.28;64.33
52745;BME280;38637;49.984;20.426;2023-03-01T09:54:49;100445.97;;;2.33;64.22
52745;BME280;38637;49.984;20.426;2023-03-01T09:57:24;100444.47;;;2.30;62.54
52745;BME280;38637;49.984;20.426;2023-03-01T10:00:05;100450.31;;;2.34;62.55
52745;BME280;38637;49.984;20.426;2023-03-01T10:02:46;100452.09;;;2.42;62.56
52745;BME280;38637;49.984;20.426;2023-03-01T10:05:23;100448.84;;;2.46;60.94
52745;BME280;38637;49.984;20.426;2023-03-01T10:10:38;100438.84;;;2.55;59.94
52745;BME280;38637;49.984;20.426;2023-03-01T10:13:19;100434.00;;;2.65;60.98
52745;BME280;38637;49.984;20.426;2023-03-01T10:16:03;100430.94;;;2.68;59.77
52745;BME280;38637;49.984;20.426;2023-03-01T10:18:32;100433.28;;;2.71;58.91
52745;BME280;38637;49.984;20.426;2023-03-01T10:21:07;100422.50;;;2.71;56.78
52745;BME280;38637;49.984;20.426;2023-03-01T10:23:35;100431.53;;;2.79;57.53
52745;BME280;38637;49.984;20.426;2023-03-01T10:29:11;100421.09;;;2.90;57.99
52745;BME280;38637;49.984;20.426;2023-03-01T10:31:46;100422.13;;;2.89;57.68
52745;BME280;38637;49.984;20.426;2023-03-01T10:34:29;100421.75;;;2.92;58.56
52745;BME280;38637;49.984;20.426;2023-03-01T10:37:22;100416.56;;;2.91;59.66
52745;BME280;38637;49.984;20.426;2023-03-01T10:42:35;100426.16;;;2.79;60.26
52745;BME280;38637;49.984;20.426;2023-03-01T10:45:29;100406.53;;;2.85;60.40
52745;BME280;38637;49.984;20.426;2023-03-01T10:48:21;100408.19;;;3.01;60.42
52745;BME280;38637;49.984;20.426;2023-03-01T10:56:07;100404.38;;;3.10;59.96
52745;BME280;38637;49.984;20.426;2023-03-01T10:58:35;100399.44;;;3.13;59.99
52745;BME280;38637;49.984;20.426;2023-03-01T11:01:04;100402.97;;;3.14;59.33
52745;BME280;38637;49.984;20.426;2023-03-01T11:03:30;100395.59;;;3.22;59.59
52745;BME280;38637;49.984;20.426;2023-03-01T11:11:13;100394.09;;;3.35;59.74
52745;BME280;38637;49.984;20.426;2023-03-01T11:14:29;100384.78;;;3.37;58.98
52745;BME280;38637;49.984;20.426;2023-03-01T11:16:49;100375.28;;;3.41;59.18
52745;BME280;38637;49.984;20.426;2023-03-01T11:19:23;100379.63;;;3.42;57.89
52745;BME280;38637;49.984;20.426;2023-03-01T11:24:17;100376.59;;;3.31;56.70
52745;BME280;38637;49.984;20.426;2023-03-01T11:26:47;100380.88;;;3.40;56.72
52745;BME280;38637;49.984;20.426;2023-03-01T11:29:37;100376.56;;;3.45;57.19
52745;BME280;38637;49.984;20.426;2023-03-01T11:32:07;100366.22;;;3.49;57.71
52745;BME280;38637;49.984;20.426;2023-03-01T11:37:26;100359.69;;;3.58;57.90
52745;BME280;38637;49.984;20.426;2023-03-01T11:40:03;100365.53;;;3.62;57.23
52745;BME280;38637;49.984;20.426;2023-03-01T11:42:43;100358.91;;;3.64;56.26
52745;BME280;38637;49.984;20.426;2023-03-01T11:45:12;100353.13;;;3.67;56.97
52745;BME280;38637;49.984;20.426;2023-03-01T11:47:58;100354.59;;;3.70;57.01
52745;BME280;38637;49.984;20.426;2023-03-01T11:50:40;100338.00;;;3.73;57.68
52745;BME280;38637;49.984;20.426;2023-03-01T11:55:57;100339.69;;;3.74;56.27
52745;BME280;38637;49.984;20.426;2023-03-01T11:58:46;100339.28;;;3.77;56.80
52745;BME280;38637;49.984;20.426;2023-03-01T12:07:15;100337.69;;;3.83;53.91
52745;BME280;38637;49.984;20.426;2023-03-01T12:12:42;100332.53;;;3.88;54.28
52745;BME280;38637;49.984;20.426;2023-03-01T12:18:09;100323.41;;;3.89;52.79
52745;BME280;38637;49.984;20.426;2023-03-01T12:24:06;100317.00;;;3.97;54.05
52745;BME280;38637;49.984;20.426;2023-03-01T12:32:11;100299.84;;;4.04;50.60
52745;BME280;38637;49.984;20.426;2023-03-01T12:34:53;100303.16;;;4.06;49.76
52745;BME280;38637;49.984;20.426;2023-03-01T12:40:23;100294.88;;;4.08;49.92
52745;BME280;38637;49.984;20.426;2023-03-01T12:48:59;100285.63;;;4.24;46.63
52745;BME280;38637;49.984;20.426;2023-03-01T12:51:31;100284.53;;;4.18;46.56
52745;BME280;38637;49.984;20.426;2023-03-01T12:53:59;100283.75;;;4.24;46.64
52745;BME280;38637;49.984;20.426;2023-03-01T12:56:29;100280.25;;;4.30;46.80
52745;BME280;38637;49.984;20.426;2023-03-01T12:59:03;100281.91;;;4.31;44.05
52745;BME280;38637;49.984;20.426;2023-03-01T13:01:41;100285.22;;;4.27;44.33
52745;BME280;38637;49.984;20.426;2023-03-01T13:04:37;100279.41;;;4.30;45.04
52745;BME280;38637;49.984;20.426;2023-03-01T13:07:25;100281.91;;;4.31;43.75
52745;BME280;38637;49.984;20.426;2023-03-01T13:17:51;100281.13;;;4.37;43.44
52745;BME280;38637;49.984;20.426;2023-03-01T13:20:19;100274.25;;;4.35;42.61
52745;BME280;38637;49.984;20.426;2023-03-01T13:22:46;100282.81;;;4.38;42.21
52745;BME280;38637;49.984;20.426;2023-03-01T13:25:16;100272.41;;;4.42;42.37
52745;BME280;38637;49.984;20.426;2023-03-01T13:27:43;100274.47;;;4.40;42.01
52745;BME280;38637;49.984;20.426;2023-03-01T13:33:39;100269.16;;;4.53;42.95
52745;BME280;38637;49.984;20.426;2023-03-01T13:36:06;100260.81;;;4.48;42.58
52745;BME280;38637;49.984;20.426;2023-03-01T13:46:52;100254.19;;;4.57;44.61
52745;BME280;38637;49.984;20.426;2023-03-01T13:49:22;100252.72;;;4.55;44.95
52745;BME280;38637;49.984;20.426;2023-03-01T13:51:50;100239.59;;;4.52;45.98
52745;BME280;38637;49.984;20.426;2023-03-01T13:54:25;100247.34;;;4.61;45.82
52745;BME280;38637;49.984;20.426;2023-03-01T13:56:51;100249.03;;;4.63;45.72
52745;BME280;38637;49.984;20.426;2023-03-01T13:59:20;100240.28;;;4.60;45.81
52745;BME280;38637;49.984;20.426;2023-03-01T14:01:52;100239.44;;;4.60;46.45
52745;BME280;38637;49.984;20.426;2023-03-01T14:04:29;100236.72;;;4.60;47.12
52745;BME280;38637;49.984;20.426;2023-03-01T14:07:16;100228.41;;;4.61;47.78
52745;BME280;38637;49.984;20.426;2023-03-01T14:09:44;100205.66;;;4.43;48.08
52745;BME280;38637;49.984;20.426;2023-03-01T14:12:39;100234.44;;;4.57;48.05
52745;BME280;38637;49.984;20.426;2023-03-01T14:17:54;100212.16;;;4.61;48.69
52745;BME280;38637;49.984;20.426;2023-03-01T14:20:27;100212.56;;;4.58;48.34
52745;BME280;38637;49.984;20.426;2023-03-01T14:22:55;100201.72;;;4.45;48.49
52745;BME280;38637;49.984;20.426;2023-03-01T14:28:02;100215.06;;;4.53;48.95
52745;BME280;38637;49.984;20.426;2023-03-01T14:30:33;100219.44;;;4.54;48.53